Time;durP1;ratioP1;P1;durP2;ratioP2;P2;SDS_P1;SDS_P2;PMS_P1;PMS_P2;Temp;Humidity;BMP_temperature;BMP_pressure;BME280_temperature;BME280_humidity;BME280_pressure;Samples;Min_cycle;Max_cycle;Signal;HPM_P1;HPM_P2
2023/04/09 00:00:37;;;;;;;27.23;16.15;;;4.30;99.90;;;;;;5003801;28;20022;-82
2023/04/09 00:03:03;;;;;;;28.25;16.45;;;4.30;99.90;;;;;;5004402;28;20053;-83
2023/04/09 00:05:29;;;;;;;27.23;17.63;;;4.30;99.90;;;;;;5004871;28;20026;-82
2023/04/09 00:07:55;;;;;;;27.75;16.88;;;4.30;99.90;;;;;;4986435;28;20023;-83
2023/04/09 00:10:20;;;;;;;31.42;17.38;;;5.10;99.90;;;;;;4985105;28;20029;-82
2023/04/09 00:12:46;;;;;;;31.85;18.25;;;4.30;99.90;;;;;;5001194;28;20125;-82
2023/04/09 00:15:11;;;;;;;32.83;17.05;;;4.30;99.90;;;;;;4986485;28;20037;-83
2023/04/09 00:17:37;;;;;;;27.60;16.60;;;4.20;99.90;;;;;;4988533;28;20054;-82
2023/04/09 00:20:03;;;;;;;31.92;17.05;;;4.20;99.90;;;;;;4986985;28;20033;-82
2023/04/09 00:22:29;;;;;;;31.02;16.77;;;4.20;99.90;;;;;;4985785;28;20030;-82
2023/04/09 00:24:56;;;;;;;29.30;15.93;;;6.10;99.90;;;;;;4985134;28;20545;-82
2023/04/09 00:27:21;;;;;;;30.45;16.70;;;5.30;99.90;;;;;;4983281;28;20026;-82
2023/04/09 00:29:47;;;;;;;29.83;16.70;;;4.20;99.90;;;;;;4999730;28;20037;-82
2023/04/09 00:32:13;;;;;;;27.02;16.25;;;4.20;99.90;;;;;;4984524;28;20026;-82
2023/04/09 00:34:38;;;;;;;26.45;15.80;;;4.10;99.90;;;;;;5001038;28;20030;-82
2023/04/09 00:37:04;;;;;;;29.35;17.30;;;4.10;99.90;;;;;;4981615;28;20026;-82
2023/04/09 00:39:30;;;;;;;27.50;15.95;;;5.70;99.90;;;;;;4997289;28;20026;-82
2023/04/09 00:42:01;;;;;;;26.05;16.25;;;4.10;99.90;;;;;;4981431;28;20034;-82
2023/04/09 00:44:27;;;;;;;26.52;15.52;;;4.10;99.90;;;;;;4984042;28;20022;-82
2023/04/09 00:46:54;;;;;;;28.88;15.25;;;4.10;99.90;;;;;;4984366;28;20026;-81
2023/04/09 00:49:20;;;;;;;28.85;16.95;;;4.10;99.90;;;;;;4981403;28;20038;-82
2023/04/09 00:51:47;;;;;;;26.80;15.73;;;4.10;99.90;;;;;;4981005;28;20038;-82
2023/04/09 00:54:13;;;;;;;28.63;16.95;;;4.10;99.90;;;;;;4997282;28;20033;-82
2023/04/09 00:56:41;;;;;;;29.42;16.90;;;4.10;99.90;;;;;;4980696;28;20027;-82
2023/04/09 00:59:07;;;;;;;27.40;16.75;;;4.10;99.90;;;;;;4980225;28;20026;-82
2023/04/09 01:01:32;;;;;;;29.23;18.23;;;4.10;99.90;;;;;;4978685;28;20023;-81
2023/04/09 01:03:58;;;;;;;28.83;17.08;;;4.00;99.90;;;;;;4977901;28;20030;-81
2023/04/09 01:06:32;;;;;;;28.17;16.48;;;4.00;99.90;;;;;;4978544;28;20262;-80
2023/04/09 01:09:19;;;;;;;25.50;16.25;;;4.00;99.90;;;;;;4996393;28;20117;-81
2023/04/09 01:12:07;;;;;;;29.65;16.33;;;4.00;99.90;;;;;;4978871;28;20034;-81
2023/04/09 01:14:50;;;;;;;28.80;16.38;;;3.90;99.90;;;;;;4995970;28;20102;-81
2023/04/09 01:17:48;;;;;;;28.50;16.60;;;3.90;99.90;;;;;;4978978;28;20115;-81
2023/04/09 01:20:21;;;;;;;32.15;17.70;;;3.90;99.90;;;;;;4994841;28;20034;-81
2023/04/09 01:23:26;;;;;;;28.67;17.02;;;3.90;99.90;;;;;;4996502;28;20502;-81
2023/04/09 01:26:15;;;;;;;28.77;16.17;;;3.90;99.90;;;;;;4978912;28;20096;-81
2023/04/09 01:28:45;;;;;;;31.77;16.55;;;3.90;99.90;;;;;;4978977;28;20035;-81
2023/04/09 01:31:14;;;;;;;26.83;16.02;;;3.90;99.90;;;;;;4979478;28;20086;-81
2023/04/09 01:33:40;;;;;;;;;;;3.90;99.90;;;;;;4978727;28;20037;-81
2023/04/09 01:36:06;;;;;;;25.65;15.52;;;3.90;99.90;;;;;;4978431;28;19906;-81
2023/04/09 01:38:35;;;;;;;30.27;17.13;;;3.80;99.90;;;;;;4995818;28;20085;-81
2023/04/09 01:41:02;;;;;;;28.27;15.25;;;3.80;99.90;;;;;;4996304;28;20022;-81
2023/04/09 01:43:30;;;;;;;29.17;17.17;;;3.80;99.90;;;;;;5000860;28;20034;-82
2023/04/09 01:45:57;;;;;;;29.27;16.63;;;3.80;99.90;;;;;;4983516;28;20164;-81
2023/04/09 01:48:23;;;;;;;26.02;15.20;;;5.30;99.90;;;;;;5000664;28;20043;-81
2023/04/09 01:50:50;;;;;;;26.95;15.77;;;3.80;99.90;;;;;;4983277;28;20041;-81
2023/04/09 01:53:16;;;;;;;28.45;15.65;;;3.80;99.90;;;;;;4999140;28;20049;-81
2023/04/09 01:55:41;;;;;;;27.00;16.35;;;3.80;99.90;;;;;;4999328;28;20026;-81
2023/04/09 01:58:07;;;;;;;31.05;17.25;;;3.80;99.90;;;;;;5000973;28;20106;-82
2023/04/09 02:00:39;;;;;;;28.02;16.10;;;4.10;99.90;;;;;;5001497;28;20027;-82
2023/04/09 02:03:20;;;;;;;28.42;16.30;;;3.80;99.90;;;;;;4985199;28;20126;-82
2023/04/09 02:06:06;;;;;;;26.08;15.52;;;3.80;99.90;;;;;;5001218;28;20062;-82
2023/04/09 02:08:33;;;;;;;27.10;15.43;;;3.70;99.90;;;;;;5003981;28;20475;-81
2023/04/09 02:11:02;;;;;;;26.90;16.08;;;3.70;99.90;;;;;;4986301;28;20453;-81
2023/04/09 02:13:29;;;;;;;24.45;14.98;;;3.70;99.90;;;;;;4984398;28;20117;-81
2023/04/09 02:15:56;;;;;;;28.35;16.02;;;3.70;99.90;;;;;;5002181;28;20027;-81
2023/04/09 02:18:23;;;;;;;28.30;15.10;;;3.70;99.90;;;;;;5001893;28;20109;-81
2023/04/09 02:20:49;;;;;;;26.52;15.93;;;3.70;99.90;;;;;;4984408;28;20038;-80
2023/04/09 02:23:16;;;;;;;25.13;15.07;;;4.20;99.90;;;;;;4983628;28;20030;-80
2023/04/09 02:25:42;;;;;;;24.52;14.50;;;3.70;99.90;;;;;;4983946;28;20022;-81
2023/04/09 02:28:08;;;;;;;26.77;14.90;;;3.70;99.90;;;;;;4983044;28;20030;-81
2023/04/09 02:30:34;;;;;;;24.67;15.27;;;3.70;99.90;;;;;;4982735;28;20034;-80
2023/04/09 02:32:59;;;;;;;25.85;14.68;;;4.00;99.90;;;;;;4982263;28;20022;-81
2023/04/09 02:35:25;;;;;;;22.20;13.30;;;3.70;99.90;;;;;;4999526;28;20027;-80
2023/04/09 02:37:51;;;;;;;24.65;15.52;;;3.70;99.90;;;;;;4998975;28;20085;-81
2023/04/09 02:40:16;;;;;;;26.50;15.65;;;3.70;99.90;;;;;;4999342;28;20030;-81
2023/04/09 02:42:42;;;;;;;27.88;15.05;;;3.60;99.90;;;;;;4981769;28;20364;-81
2023/04/09 02:45:08;;;;;;;25.65;14.68;;;3.60;99.90;;;;;;4982220;28;20049;-81
2023/04/09 02:47:34;;;;;;;27.00;15.20;;;3.60;99.90;;;;;;5000454;28;20027;-81
2023/04/09 02:49:59;;;;;;;25.42;14.80;;;3.60;99.90;;;;;;5001393;28;20031;-81
2023/04/09 02:52:25;;;;;;;24.73;14.50;;;3.60;99.90;;;;;;5000720;28;20105;-82
2023/04/09 02:54:51;;;;;;;29.13;15.98;;;3.50;99.90;;;;;;5000791;28;20041;-82
2023/04/09 02:57:17;;;;;;;24.67;14.40;;;3.60;99.90;;;;;;5000281;28;20089;-82
2023/04/09 02:59:44;;;;;;;23.48;14.07;;;5.30;99.90;;;;;;4983105;28;20069;-82
2023/04/09 03:02:10;;;;;;;28.10;16.08;;;4.70;99.90;;;;;;4982567;28;20022;-82
2023/04/09 03:04:36;;;;;;;26.20;15.02;;;3.60;99.90;;;;;;4982516;28;20096;-82
2023/04/09 03:07:01;;;;;;;25.85;15.50;;;3.60;99.90;;;;;;5000003;28;20030;-82
2023/04/09 03:09:29;;;;;;;23.45;13.93;;;3.70;99.90;;;;;;4999820;28;20475;-82
2023/04/09 03:11:56;;;;;;;22.23;13.75;;;3.70;99.90;;;;;;4999386;28;20137;-82
2023/04/09 03:14:22;;;;;;;24.30;14.63;;;3.70;99.90;;;;;;4981295;28;20023;-81
2023/04/09 03:16:48;;;;;;;23.25;14.18;;;3.70;99.90;;;;;;4998100;28;20022;-82
2023/04/09 03:19:13;;;;;;;24.10;14.52;;;3.70;99.90;;;;;;4998685;28;20038;-82
2023/04/09 03:21:39;;;;;;;23.77;13.98;;;5.40;99.90;;;;;;4981894;28;20034;-82
2023/04/09 03:24:05;;;;;;;23.85;14.30;;;4.50;99.90;;;;;;4981450;28;20088;-83
2023/04/09 03:26:35;;;;;;;24.13;14.20;;;3.70;99.90;;;;;;4998802;28;20022;-82
2023/04/09 03:29:01;;;;;;;24.58;14.93;;;3.70;99.90;;;;;;4981383;28;20034;-82
2023/04/09 03:31:27;;;;;;;24.58;14.23;;;3.70;99.90;;;;;;4998319;28;20081;-82
2023/04/09 03:33:53;;;;;;;21.23;12.75;;;3.70;99.90;;;;;;4998023;28;20022;-81
2023/04/09 03:36:18;;;;;;;22.65;13.13;;;3.70;99.90;;;;;;4981034;28;20030;-85
2023/04/09 03:38:44;;;;;;;23.38;13.80;;;3.70;99.90;;;;;;4984261;28;20089;-82
2023/04/09 03:41:10;;;;;;;19.35;12.50;;;3.70;99.90;;;;;;4997471;28;20032;-82
2023/04/09 03:43:35;;;;;;;21.75;12.70;;;4.90;99.90;;;;;;4997685;28;20070;-82
2023/04/09 03:46:01;;;;;;;20.45;13.05;;;3.60;99.90;;;;;;4979865;28;20549;-82
2023/04/09 03:48:26;;;;;;;23.38;13.60;;;3.60;99.90;;;;;;4997488;28;20066;-82
2023/04/09 03:50:52;;;;;;;24.80;13.32;;;3.60;99.90;;;;;;4980355;28;20065;-82
2023/04/09 03:53:18;;;;;;;22.75;13.30;;;3.60;99.90;;;;;;4997107;28;20113;-82
2023/04/09 03:55:44;;;;;;;21.33;13.30;;;3.60;99.90;;;;;;4980346;28;20446;-82
2023/04/09 03:58:10;;;;;;;21.25;12.52;;;3.90;99.90;;;;;;4981046;28;20423;-82
2023/04/09 04:00:35;;;;;;;20.58;13.13;;;3.60;99.90;;;;;;4981713;28;20026;-82
2023/04/09 04:03:01;;;;;;;23.73;12.52;;;3.60;99.90;;;;;;4981263;28;20026;-82
2023/04/09 04:05:27;;;;;;;20.67;12.85;;;3.50;99.90;;;;;;4980756;28;20033;-82
2023/04/09 04:07:52;;;;;;;22.52;12.85;;;3.60;99.90;;;;;;4980736;28;20026;-82
2023/04/09 04:10:18;;;;;;;25.60;12.73;;;3.50;99.90;;;;;;4980623;28;20470;-81
2023/04/09 04:12:44;;;;;;;23.23;13.13;;;3.60;99.90;;;;;;4979055;28;20054;-81
2023/04/09 04:15:10;;;;;;;21.52;12.45;;;4.30;99.90;;;;;;4997933;28;20022;-81
2023/04/09 04:17:36;;;;;;;20.48;12.63;;;3.60;99.90;;;;;;4998893;28;20375;-82
2023/04/09 04:20:02;;;;;;;21.58;13.07;;;4.40;99.90;;;;;;4998396;28;20034;-82
2023/04/09 04:22:28;;;;;;;21.00;12.98;;;3.70;99.90;;;;;;4981388;28;20031;-82
2023/04/09 04:24:54;;;;;;;22.05;13.43;;;3.60;99.90;;;;;;4997448;28;20034;-82
2023/04/09 04:27:19;;;;;;;23.15;12.88;;;4.40;99.90;;;;;;4997188;28;20455;-82
2023/04/09 04:29:45;;;;;;;24.73;13.63;;;3.70;99.90;;;;;;4978937;28;20035;-82
2023/04/09 04:32:10;;;;;;;22.30;12.93;;;3.80;99.90;;;;;;4997938;28;20090;-82
2023/04/09 04:34:36;;;;;;;23.42;14.02;;;3.80;99.90;;;;;;4980731;28;20479;-82
2023/04/09 04:37:02;;;;;;;22.45;13.07;;;3.80;99.90;;;;;;4981627;28;20026;-84
2023/04/09 04:39:30;;;;;;;25.02;13.60;;;3.90;99.90;;;;;;5000016;28;20030;-82
2023/04/09 04:41:56;;;;;;;23.15;13.50;;;3.80;99.90;;;;;;4981909;28;20055;-82
2023/04/09 04:44:21;;;;;;;24.00;14.30;;;3.90;99.90;;;;;;4983549;28;20463;-81
2023/04/09 04:46:47;;;;;;;21.38;12.85;;;3.90;99.90;;;;;;4999799;28;20030;-82
2023/04/09 04:49:12;;;;;;;23.00;12.95;;;3.90;99.90;;;;;;4982297;28;20035;-82
2023/04/09 04:51:38;;;;;;;18.83;12.10;;;3.90;99.90;;;;;;4999772;28;20034;-82
2023/04/09 04:54:04;;;;;;;19.48;12.65;;;4.00;99.90;;;;;;5000110;28;20045;-81
2023/04/09 04:56:29;;;;;;;21.33;13.48;;;4.00;99.90;;;;;;4983052;28;20057;-82
2023/04/09 04:58:55;;;;;;;21.38;13.55;;;4.00;99.90;;;;;;4981617;28;20098;-82
2023/04/09 05:01:20;;;;;;;22.23;13.10;;;4.00;99.90;;;;;;4997398;28;20029;-82
2023/04/09 05:03:46;;;;;;;19.30;12.18;;;4.10;99.90;;;;;;4996724;28;20471;-82
2023/04/09 05:06:12;;;;;;;23.27;13.73;;;4.10;99.90;;;;;;4997034;28;20426;-82
2023/04/09 05:08:37;;;;;;;20.50;12.52;;;4.10;99.90;;;;;;4997710;28;20041;-83
2023/04/09 05:11:03;;;;;;;20.27;12.60;;;4.10;99.90;;;;;;4996135;28;20026;-81
2023/04/09 05:13:28;;;;;;;21.70;13.25;;;4.10;99.90;;;;;;5002315;28;20073;-82
2023/04/09 05:15:54;;;;;;;21.95;13.48;;;4.10;99.90;;;;;;4984587;28;20382;-82
2023/04/09 05:18:20;;;;;;;20.80;13.38;;;4.20;99.90;;;;;;5001739;28;20034;-81
2023/04/09 05:20:46;;;;;;;23.13;13.43;;;5.20;99.90;;;;;;4985603;28;20031;-82
2023/04/09 05:23:11;;;;;;;20.17;12.70;;;4.20;99.90;;;;;;4985257;28;20062;-82
2023/04/09 05:25:38;;;;;;;21.30;12.95;;;4.40;99.90;;;;;;5002162;28;20026;-82
2023/04/09 05:28:03;;;;;;;22.73;12.90;;;4.30;99.90;;;;;;5002281;28;20032;-82
2023/04/09 05:30:29;;;;;;;20.23;12.32;;;4.30;99.90;;;;;;5001654;28;20031;-82
2023/04/09 05:32:54;;;;;;;21.80;12.63;;;4.30;99.90;;;;;;5001679;28;20037;-82
2023/04/09 05:35:20;;;;;;;19.63;12.77;;;4.60;99.90;;;;;;4984257;28;20031;-82
2023/04/09 05:37:46;;;;;;;19.67;12.40;;;4.30;99.90;;;;;;4982825;28;20073;-82
2023/04/09 05:40:12;;;;;;;23.38;13.52;;;4.30;99.90;;;;;;4984358;28;20031;-82
2023/04/09 05:42:37;;;;;;;19.25;12.10;;;4.30;99.90;;;;;;4992072;28;20031;-82
2023/04/09 05:45:03;;;;;;;22.90;12.77;;;4.30;99.90;;;;;;5008148;28;20026;-81
2023/04/09 05:47:29;;;;;;;20.00;12.48;;;4.30;99.90;;;;;;4988517;28;20092;-81
2023/04/09 05:49:54;;;;;;;20.45;13.05;;;4.40;99.90;;;;;;5003192;28;20026;-81
2023/04/09 05:52:20;;;;;;;21.27;12.63;;;4.40;99.90;;;;;;4985181;28;20554;-81
2023/04/09 05:54:46;;;;;;;20.88;12.35;;;4.40;99.90;;;;;;5002342;28;20023;-81
2023/04/09 05:57:12;;;;;;;21.73;13.30;;;4.50;99.90;;;;;;4984124;28;20371;-81
2023/04/09 05:59:37;;;;;;;20.90;12.18;;;4.50;99.90;;;;;;4984812;28;20030;-81
2023/04/09 06:02:03;;;;;;;20.58;13.15;;;4.70;99.90;;;;;;4986844;28;20053;-83
2023/04/09 06:04:28;;;;;;;23.67;13.57;;;4.60;99.90;;;;;;5005817;28;20026;-82
2023/04/09 06:06:55;;;;;;;23.42;13.13;;;4.70;99.90;;;;;;4992082;28;20054;-83
2023/04/09 06:09:20;;;;;;;20.42;13.48;;;4.70;99.90;;;;;;4989243;28;20098;-83
2023/04/09 06:11:46;;;;;;;20.40;13.45;;;4.70;99.90;;;;;;5007367;28;20022;-83
2023/04/09 06:14:15;;;;;;;23.75;13.80;;;4.80;99.90;;;;;;5003280;28;20041;-62
2023/04/09 06:16:40;;;;;;;23.02;13.80;;;4.80;99.90;;;;;;4997343;28;20026;-62
2023/04/09 06:19:06;;;;;;;23.58;14.20;;;4.90;99.90;;;;;;4997400;28;20041;-62
2023/04/09 06:21:32;;;;;;;20.48;13.70;;;4.90;99.90;;;;;;4998879;28;20023;-82
2023/04/09 06:23:57;;;;;;;23.63;13.65;;;5.00;99.90;;;;;;5007495;28;20033;-85
2023/04/09 06:26:23;;;;;;;18.73;12.68;;;5.00;99.90;;;;;;5011771;28;20034;-83
2023/04/09 06:28:49;;;;;;;22.23;14.20;;;5.00;99.90;;;;;;4986839;28;20041;-80
2023/04/09 06:31:14;;;;;;;22.73;13.95;;;5.10;99.90;;;;;;5005068;28;20023;-80
2023/04/09 06:33:40;;;;;;;24.83;14.95;;;5.20;99.90;;;;;;4988293;28;20037;-79
2023/04/09 06:36:06;;;;;;;23.75;15.02;;;5.20;99.90;;;;;;5005189;28;20033;-81
2023/04/09 06:38:32;;;;;;;23.50;14.60;;;5.20;99.90;;;;;;4986707;28;20031;-82
2023/04/09 06:40:57;;;;;;;22.70;15.35;;;5.20;99.90;;;;;;5004254;28;20109;-82
2023/04/09 06:43:23;;;;;;;25.10;15.57;;;5.30;99.90;;;;;;4987194;28;20050;-82
2023/04/09 06:45:48;;;;;;;24.08;14.50;;;5.40;99.90;;;;;;4986507;28;20219;-83
2023/04/09 06:48:14;;;;;;;22.13;14.63;;;5.60;99.90;;;;;;5003405;28;20034;-82
2023/04/09 06:50:39;;;;;;;23.90;14.70;;;5.70;99.90;;;;;;5006165;28;20026;-83
2023/04/09 06:53:06;;;;;;;20.77;14.45;;;5.80;99.90;;;;;;5007064;28;20037;-82
2023/04/09 06:55:31;;;;;;;22.63;15.35;;;5.80;99.90;;;;;;5006767;28;20030;-82
2023/04/09 06:57:57;;;;;;;22.10;14.38;;;6.20;99.90;;;;;;4992924;28;20026;-83
2023/04/09 07:00:23;;;;;;;23.98;16.02;;;6.00;99.90;;;;;;5009236;28;20065;-83
2023/04/09 07:02:49;;;;;;;23.60;14.65;;;6.10;99.90;;;;;;5003539;28;20030;-81
2023/04/09 07:05:14;;;;;;;22.45;14.73;;;6.20;99.90;;;;;;5009215;28;20022;-84
2023/04/09 07:07:40;;;;;;;22.48;14.00;;;6.20;99.90;;;;;;5009930;28;20029;-83
2023/04/09 07:10:06;;;;;;;20.92;13.68;;;6.20;99.90;;;;;;5010399;28;20038;-84
2023/04/09 07:12:36;;;;;;;22.88;14.73;;;6.20;99.90;;;;;;4995900;28;20042;-86
2023/04/09 07:15:04;;;;;;;22.25;14.63;;;6.30;99.90;;;;;;5013758;28;20023;-87
2023/04/09 07:17:30;;;;;;;23.58;14.88;;;6.60;99.90;;;;;;5013356;28;20030;-85
2023/04/09 07:19:56;;;;;;;21.63;14.90;;;7.00;99.90;;;;;;4992559;28;20034;-66
2023/04/09 07:22:23;;;;;;;21.98;14.45;;;7.50;99.90;;;;;;4996966;28;20030;-80
2023/04/09 07:24:54;;;;;;;20.65;14.27;;;7.60;99.90;;;;;;4985984;28;20022;-79
2023/04/09 07:27:20;;;;;;;22.35;13.85;;;7.70;99.90;;;;;;5000811;28;20517;-85
2023/04/09 07:29:46;;;;;;;21.67;14.63;;;7.70;99.90;;;;;;5021130;28;20065;-79
2023/04/09 07:32:12;;;;;;;21.98;14.27;;;7.60;99.90;;;;;;4998357;28;20030;-82
2023/04/09 07:34:37;;;;;;;22.15;14.52;;;7.40;99.90;;;;;;5009675;28;20022;-84
2023/04/09 07:37:03;;;;;;;22.45;13.93;;;7.30;99.90;;;;;;5006442;28;20026;-81
2023/04/09 07:39:29;;;;;;;22.98;14.82;;;7.20;99.90;;;;;;4986790;28;20397;-83
2023/04/09 07:41:56;;;;;;;24.65;15.68;;;7.10;99.90;;;;;;5003102;28;20024;-81
2023/04/09 07:44:22;;;;;;;25.92;16.67;;;7.20;99.90;;;;;;5024885;28;20017;-82
2023/04/09 07:46:47;;;;;;;24.20;15.85;;;7.20;99.90;;;;;;5006895;28;20438;-83
2023/04/09 07:49:13;;;;;;;22.73;15.13;;;7.20;99.90;;;;;;5023552;28;20037;-79
2023/04/09 07:51:39;;;;;;;26.50;16.35;;;8.40;99.90;;;;;;5005187;28;20132;-79
2023/04/09 07:54:04;;;;;;;25.50;16.70;;;7.40;99.90;;;;;;5022939;28;20018;-80
2023/04/09 07:56:30;;;;;;;23.80;16.08;;;7.40;99.90;;;;;;5010177;28;20034;-82
2023/04/09 07:58:56;;;;;;;27.98;17.20;;;7.40;99.90;;;;;;4982986;28;20033;-77
2023/04/09 08:01:23;;;;;;;29.05;17.67;;;7.40;99.90;;;;;;4979345;28;20113;-78
2023/04/09 08:03:49;;;;;;;25.95;17.02;;;7.50;99.90;;;;;;4996822;28;20050;-77
2023/04/09 08:06:15;;;;;;;27.95;17.40;;;7.70;99.90;;;;;;4996944;28;20447;-82
2023/04/09 08:08:41;;;;;;;25.08;16.73;;;7.70;99.90;;;;;;4980824;28;20026;-81
2023/04/09 08:11:07;;;;;;;24.38;15.25;;;7.60;99.90;;;;;;4979640;28;20386;-80
2023/04/09 08:13:33;;;;;;;25.73;16.63;;;7.60;99.90;;;;;;4996808;28;20050;-77
2023/04/09 08:16:02;;;;;;;29.67;17.40;;;7.60;99.90;;;;;;4996014;28;20027;-77
2023/04/09 08:18:28;;;;;;;24.65;16.10;;;8.00;99.90;;;;;;4978786;28;20027;-81
2023/04/09 08:20:54;;;;;;;24.67;16.33;;;8.00;99.90;;;;;;4996066;28;20030;-81
2023/04/09 08:23:19;;;;;;;23.90;15.95;;;7.90;99.90;;;;;;4997088;28;20042;-82
2023/04/09 08:25:45;;;;;;;23.55;15.77;;;8.00;99.90;;;;;;4978938;28;20022;-81
2023/04/09 08:28:11;;;;;;;22.50;15.02;;;8.10;99.90;;;;;;4996125;28;20026;-80
2023/04/09 08:30:37;;;;;;;21.98;14.80;;;8.20;99.90;;;;;;4978472;28;20061;-81
2023/04/09 08:33:02;;;;;;;19.23;13.38;;;8.20;99.90;;;;;;4993362;28;20116;-79
2023/04/09 08:35:31;;;;;;;21.88;14.50;;;8.20;99.90;;;;;;4997688;28;20030;-78
2023/04/09 08:37:58;;;;;;;20.77;13.57;;;8.10;99.90;;;;;;5015094;28;20474;-77
2023/04/09 08:40:24;;;;;;;20.48;14.80;;;8.00;99.90;;;;;;4997820;28;20040;-79
2023/04/09 08:42:58;;;;;;;21.17;14.30;;;8.10;99.90;;;;;;5015285;28;20386;-77
2023/04/09 08:45:23;;;;;;;24.85;15.43;;;8.20;99.90;;;;;;4997371;28;20455;-78
2023/04/09 08:47:50;;;;;;;20.90;14.77;;;8.10;99.90;;;;;;5014800;28;20057;-76
2023/04/09 08:50:16;;;;;;;22.90;15.80;;;8.20;99.90;;;;;;4997224;28;20034;-79
2023/04/09 08:52:45;;;;;;;23.95;14.90;;;8.20;99.90;;;;;;5014844;28;20033;-79
2023/04/09 08:55:11;;;;;;;;;;;8.30;99.90;;;;;;4997260;28;20021;-78
2023/04/09 08:57:38;;;;;;;20.23;13.35;;;8.60;99.90;;;;;;5015236;28;19905;-79
2023/04/09 09:00:05;;;;;;;19.02;12.93;;;8.80;99.90;;;;;;4997631;28;20482;-83
2023/04/09 09:02:30;;;;;;;19.08;13.23;;;8.90;99.90;;;;;;5000556;28;20102;-79
2023/04/09 09:04:59;;;;;;;18.58;12.32;;;8.90;99.90;;;;;;5003791;28;20474;-84
2023/04/09 09:07:28;;;;;;;19.55;12.88;;;8.90;99.90;;;;;;5000068;28;20034;-82
2023/04/09 09:09:58;;;;;;;18.08;11.73;;;8.80;99.90;;;;;;5018733;28;20041;-81
2023/04/09 09:12:38;;;;;;;22.00;14.60;;;8.60;99.90;;;;;;4998194;28;20053;-81
2023/04/09 09:15:26;;;;;;;22.13;14.48;;;8.50;99.90;;;;;;5018974;28;20481;-85
2023/04/09 09:17:56;;;;;;;23.83;15.38;;;8.50;99.90;;;;;;5005506;28;20044;-80
2023/04/09 09:20:24;;;;;;;22.70;15.43;;;8.50;99.90;;;;;;5024979;28;20030;-80
2023/04/09 09:22:51;;;;;;;22.75;15.05;;;8.40;99.90;;;;;;5012654;28;20030;-81
2023/04/09 09:25:21;;;;;;;23.58;15.52;;;;;;;;;;5030397;28;20065;-80
2023/04/09 09:27:47;;;;;;;26.35;15.68;;;8.00;99.90;;;;;;5030282;28;20014;-79
2023/04/09 09:30:21;;;;;;;22.55;13.80;;;8.00;99.90;;;;;;5028999;28;20034;-78
2023/04/09 09:33:02;;;;;;;23.98;14.18;;;8.10;99.90;;;;;;4993834;28;20114;-78
2023/04/09 09:35:28;;;;;;;20.95;14.23;;;8.20;99.90;;;;;;4992243;28;20031;-80
2023/04/09 09:38:03;;;;;;;21.42;13.90;;;8.40;99.90;;;;;;5011626;28;20036;-81
2023/04/09 09:40:28;;;;;;;21.02;14.52;;;8.70;99.90;;;;;;5010658;28;20034;-81
2023/04/09 09:42:56;;;;;;;21.23;13.98;;;8.90;99.90;;;;;;5020489;28;20030;-82
2023/04/09 09:45:22;;;;;;;22.33;14.48;;;9.00;99.90;;;;;;5005234;28;20035;-83
2023/04/09 09:47:48;;;;;;;21.02;13.18;;;9.10;99.90;;;;;;5006613;28;20053;-84
2023/04/09 09:50:14;;;;;;;21.13;13.25;;;9.00;99.90;;;;;;5018773;28;20050;-83
2023/04/09 09:52:44;;;;;;;24.80;15.05;;;9.20;99.90;;;;;;5008099;28;20030;-84
2023/04/09 09:55:13;;;;;;;22.13;14.52;;;9.20;99.90;;;;;;5023225;28;20057;-82
2023/04/09 09:57:43;;;;;;;22.75;14.50;;;9.40;99.90;;;;;;5018084;28;20091;-83
2023/04/09 10:00:12;;;;;;;20.73;13.65;;;9.60;99.90;;;;;;4997431;28;20356;-84
2023/04/09 10:02:46;;;;;;;24.45;15.23;;;9.90;99.90;;;;;;5010615;28;20025;-84
2023/04/09 10:05:14;;;;;;;22.08;13.77;;;10.10;99.90;;;;;;4987131;28;20047;-83
2023/04/09 10:07:41;;;;;;;21.60;15.02;;;10.50;99.90;;;;;;5001693;28;20038;-84
2023/04/09 10:10:08;;;;;;;20.85;13.80;;;10.90;99.90;;;;;;5001384;28;20030;-84
2023/04/09 10:12:33;;;;;;;19.42;13.75;;;11.20;99.90;;;;;;5000690;28;20050;-82
2023/04/09 10:15:03;;;;;;;21.65;14.77;;;11.30;99.90;;;;;;4983246;28;20515;-85
2023/04/09 10:17:30;;;;;;;20.77;13.93;;;11.20;99.90;;;;;;5001068;28;20022;-84
2023/04/09 10:20:10;;;;;;;22.27;13.68;;;10.90;99.90;;;;;;5001111;28;20058;-84
2023/04/09 10:22:37;;;;;;;21.55;14.30;;;10.90;99.90;;;;;;4983771;28;20117;-84
2023/04/09 10:25:05;;;;;;;21.67;14.80;;;10.90;99.90;;;;;;4983724;28;20383;-84
2023/04/09 10:27:31;;;;;;;20.52;14.32;;;10.90;99.90;;;;;;4980277;28;20030;-83
2023/04/09 10:29:58;;;;;;;21.20;13.43;;;10.90;99.90;;;;;;4980841;28;20034;-84
2023/04/09 10:32:26;;;;;;;23.25;15.35;;;10.80;99.90;;;;;;4980759;28;20030;-82
2023/04/09 10:34:56;;;;;;;23.42;16.08;;;10.30;99.90;;;;;;5000959;28;20026;-83
2023/04/09 10:37:26;;;;;;;24.55;16.00;;;10.30;99.90;;;;;;5001736;28;20029;-83
2023/04/09 10:39:52;;;;;;;19.90;13.50;;;10.30;99.90;;;;;;4984400;28;20022;-84
2023/04/09 10:42:42;;;;;;;21.27;14.13;;;10.50;99.90;;;;;;5000466;28;20026;-83
2023/04/09 10:45:12;;;;;;;24.85;14.65;;;10.80;99.90;;;;;;4999284;28;20101;-85
2023/04/09 10:47:40;;;;;;;23.90;15.70;;;11.20;99.90;;;;;;4997933;28;20109;-85
2023/04/09 10:50:30;;;;;;;24.13;15.07;;;11.70;99.90;;;;;;4980575;28;20475;-85
2023/04/09 10:52:59;;;;;;;24.55;15.73;;;12.30;99.90;;;;;;4980285;28;20065;-86
2023/04/09 10:55:36;;;;;;;23.30;15.75;;;12.50;98.80;;;;;;4997546;28;20037;-85
2023/04/09 10:58:09;;;;;;;24.58;17.05;;;12.50;98.40;;;;;;4997770;28;20077;-86
2023/04/09 11:00:40;;;;;;;25.92;18.00;;;12.50;98.30;;;;;;4980411;28;20033;-87
2023/04/09 11:03:26;;;;;;;23.95;16.45;;;12.20;99.60;;;;;;4980145;28;20456;-85
2023/04/09 11:06:00;;;;;;;27.67;17.08;;;12.40;99.60;;;;;;4997110;28;20026;-86
2023/04/09 11:08:30;;;;;;;25.00;17.33;;;12.80;98.60;;;;;;4997228;28;20065;-86
2023/04/09 11:10:58;;;;;;;25.77;18.67;;;13.00;97.90;;;;;;4997484;28;20023;-86
2023/04/09 11:13:24;;;;;;;25.88;17.65;;;12.90;97.60;;;;;;4980142;28;20042;-86
2023/04/09 11:15:50;;;;;;;25.77;17.38;;;12.70;97.30;;;;;;4997322;28;20026;-87
2023/04/09 11:18:26;;;;;;;22.42;14.95;;;12.50;98.60;;;;;;4980221;28;20030;-87
2023/04/09 11:20:56;;;;;;;22.90;14.68;;;12.40;97.90;;;;;;4997030;28;20033;-88
2023/04/09 11:23:23;;;;;;;24.95;17.63;;;12.20;96.90;;;;;;4979719;28;20085;-88
2023/04/09 11:25:50;;;;;;;25.25;16.10;;;11.80;97.60;;;;;;4980720;28;20057;-87
2023/04/09 11:28:16;;;;;;;25.77;15.60;;;12.00;98.30;;;;;;4996913;28;20034;-85
2023/04/09 11:30:42;;;;;;;23.33;16.13;;;12.60;97.20;;;;;;5010183;28;20387;-86
2023/04/09 11:33:08;;;;;;;23.25;16.73;;;13.20;94.90;;;;;;5012891;28;20046;-85
2023/04/09 11:35:37;;;;;;;23.30;16.00;;;12.80;93.40;;;;;;5013090;28;20022;-85
2023/04/09 11:38:10;;;;;;;22.20;15.70;;;12.90;94.50;;;;;;4987891;28;20027;-85
2023/04/09 11:40:44;;;;;;;22.50;16.02;;;13.30;92.70;;;;;;5002557;28;20037;-86
2023/04/09 11:43:10;;;;;;;22.45;15.05;;;13.00;92.40;;;;;;4979625;28;20421;-86
2023/04/09 11:45:35;;;;;;;18.17;12.70;;;12.80;91.80;;;;;;4979711;28;20030;-86
2023/04/09 11:48:01;;;;;;;19.88;12.65;;;12.50;91.70;;;;;;4997274;28;20023;-87
2023/04/09 11:50:27;;;;;;;16.67;12.75;;;12.50;90.10;;;;;;4980483;28;20475;-86
2023/04/09 11:52:53;;;;;;;16.75;12.40;;;12.40;91.20;;;;;;4980085;28;20026;-87
2023/04/09 11:55:29;;;;;;;17.77;12.50;;;12.40;90.40;;;;;;4997130;28;20034;-87
2023/04/09 11:57:59;;;;;;;18.15;11.90;;;12.40;91.40;;;;;;4979517;28;20390;-88
2023/04/09 12:00:26;;;;;;;17.77;11.57;;;12.70;91.30;;;;;;4996736;28;20081;-87
2023/04/09 12:03:01;;;;;;;18.70;11.90;;;13.40;89.00;;;;;;4996451;28;20118;-88
2023/04/09 12:05:31;;;;;;;18.88;13.10;;;13.80;84.80;;;;;;4979129;28;20023;-88
2023/04/09 12:08:07;;;;;;;15.15;11.05;;;13.40;86.20;;;;;;4978891;28;20076;-88
2023/04/09 12:10:34;;;;;;;14.23;9.80;;;13.30;85.10;;;;;;4996188;28;20037;-89
2023/04/09 12:13:09;;;;;;;14.35;10.65;;;13.20;81.20;;;;;;4978648;28;20053;-88
2023/04/09 12:15:37;;;;;;;14.13;10.13;;;12.80;82.50;;;;;;4978919;28;20054;-88
2023/04/09 12:18:07;;;;;;;14.40;10.43;;;12.60;85.00;;;;;;4996323;28;20046;-88
2023/04/09 12:20:35;;;;;;;12.50;8.68;;;12.40;87.90;;;;;;4979129;28;20056;-87
2023/04/09 12:23:02;;;;;;;10.70;8.05;;;12.20;83.80;;;;;;4996161;28;20084;-88
2023/04/09 12:25:30;;;;;;;11.43;8.68;;;11.90;84.00;;;;;;4978761;28;20026;-88
2023/04/09 12:27:56;;;;;;;12.57;9.30;;;11.70;85.20;;;;;;4978881;28;20034;-87
2023/04/09 12:30:23;;;;;;;13.80;9.40;;;11.50;88.70;;;;;;4978763;28;20186;-86
2023/04/09 12:32:49;;;;;;;19.42;11.95;;;11.30;91.30;;;;;;4978989;28;20037;-85
2023/04/09 12:35:15;;;;;;;18.35;11.88;;;11.00;91.80;;;;;;4979121;28;20352;-85
2023/04/09 12:37:42;;;;;;;16.90;11.43;;;10.80;92.90;;;;;;4980306;28;20029;-84